AirNav   Everest Fuels
 
 525 users online  

KCDK George T Lewis Airport
Cedar Key, Florida, USA

GOING TO CEDAR KEY?


FAA INFORMATION EFFECTIVE 31 JANUARY 2019

Location

FAA Identifier: CDK
Lat/Long: 29-08-03.2000N / 083-03-01.7000W
29-08.053333N / 083-03.028333W
29.1342222 / -83.0504722
(estimated)
Elevation: 11 ft. / 3.4 m (surveyed)
Variation: 02W (1985)
From city: 1 mile W of CEDAR KEY, FL
Time zone: UTC -5 (UTC -4 during Daylight Saving Time)
Zip code: 32625

Airport Operations

Airport use: Open to the public
Activation date: 04/1940
Control tower: no
ARTCC: JACKSONVILLE CENTER
FSS: GAINESVILLE FLIGHT SERVICE STATION
NOTAMs facility: GNV (NOTAM-D service available)
Attendance: UNATNDD
Wind indicator: lighted, WINDSOCK ON NON-FRANGIBLE POLE.
Segmented circle: no
Lights: ACTVT REIL RWY 05 & 23; MIRL RWY 5/23 - CTAF.
Beacon: white-green (lighted land airport)
Operates sunset to sunrise.

Airport Communications

CTAF: 122.9

Nearby radio navigation aids

VOR radial/distance  VOR name  Freq  Var
CTYr182/27.9CROSS CITY VORTAC112.0002W

Airport Services

Parking: tiedowns
Airframe service: NONE
Powerplant service: NONE
Bottled oxygen: NONE
Bulk oxygen: NONE

Runway Information

Runway 5/23

Dimensions: 2355 x 100 ft. / 718 x 30 m
Surface: asphalt, in fair condition
Weight bearing capacity: 
Single wheel: 12.5
Runway edge lights: medium intensity
RUNWAY 5  RUNWAY 23
Latitude: 29-07.924833N29-08.182333N
Longitude: 083-03.194667W083-02.863000W
Gradient: 0.2%0.2%
Traffic pattern: leftleft
Displaced threshold: no338 ft.
Markings: basic, in good conditionbasic, in good condition
Runway end identifier lights: yesyes
Obstructions: 30 ft. trees, 790 ft. from runway, 50 ft. right of centerline, 19:1 slope to clear15 ft. road, 200 ft. from runway, 1:1 slope to clear
RY 23 HAS 15 FT ROAD AT END 0F RWY.

Airport Ownership and Management from official FAA records

Ownership: Publicly-owned
Owner: LEVY COUNTY
PO BOX 310
BRONSON, FL 32621
Phone 352-486-5218
Manager: WILBUR DEAN
GEORGE T LEWIS AIRPORT, PO BOX 310
BRONSON, FL 32621
Phone (352) 486-5218
AIRPORT PHYSICAL ADDRESS: 14703 SOUTHWEST AIRPORT RD., CEDAR KEY, FL 32625

Airport Operational Statistics

Aircraft based on the field: 2
Single engine airplanes: 2
    
Aircraft operations: avg 77/week *
75% transient general aviation
25% local general aviation
* for 12-month period ending 15 December 2017

Additional Remarks

SEA GULLS ON RY.
TWY CLSD TO ACFT, USED AS PUBLIC ROAD.
4 FT FENCE 125 FT FM RY CENTERLINE LOCATED 400 FT 'NE' OF RY 23 THRLD & PARRALLEL TO PUBLIC ROAD.

Instrument Procedures

There are no published instrument procedures at KCDK.

Some nearby airports with instrument procedures:

KCGC - Crystal River Airport-Captain Tom Davis Field (30 nm SE)
KCTY - Cross City Airport (30 nm N)
X60 - Williston Municipal Airport (33 nm NE)
X35 - Marion County Airport (36 nm E)
KINF - Inverness Airport (43 nm SE)
 
Loc | Ops | Rwys | IFR | FBO | Links
Com | Nav | Svcs | Stats | Notes
Area around KCDK (George T Lewis Airport)
 
Road maps at: MapQuest Bing Google
 
Aerial photo
WARNING: Photo may not be current or correct
Aerial photo of KCDK (George T Lewis Airport)
Photo by William A. Ibarra
AviatorServices.com
Photo taken 25-Jan-2017
looking west-northwest.

Do you have a better or more recent aerial photo of George T Lewis Airport that you would like to share? If so, please send us your photo.

 
Sectional chart

 
Airport distance calculator
Flying to George T Lewis Airport? Find the distance to fly.

From to KCDK

Sunrise and sunset
Times for 23-Feb-2019
 Local
(UTC-5)
 Zulu
(UTC)
Morning civil twilight06:4111:41
Sunrise07:0512:05
Sunset18:2723:27
Evening civil twilight18:5123:51

Current date and time
Zulu (UTC)  23-Feb-2019 05:46:05
Local (UTC-5)  23-Feb-2019 00:46:05
 
METAR
KCTY 
25nm N 
230535Z AUTO 09004KT 7SM SCT060 19/19 A3015 RMK AO2 T01890186
KCGC 
30nm SE 
230535Z AUTO 00000KT 7SM CLR 19/19 A3015 RMK AO2
KX60 
33nm NE 
118.425 352-528-9949
230535Z AUTO RMK A01 PNO
KINF 
43nm SE 
230535Z AUTO 00000KT 7SM CLR 18/18 A3016 RMK AO2
KOCF 
44nm E 
230451Z AUTO 12004KT 10SM CLR 22/19 A3017 RMK AO2 SLP219 T02220194 $
TAF
NOTAMs
Click for the latest NOTAMs
NOTAMs are issued by the DoD/FAA and will open in a separate window not controlled by AirNav.

 

 
 

Getting Around: Taxi, Limo, Rental Cars, Mass Transit

  
 Business Name 
 
 Contact 
 
Services / Description
 
Comments
  
Judy's Airport Taxi 352-949-2127 Ground transportation

More info about Judy's Airport Taxi
 
   write
 

Would you like to see your business listed on this page?

 If your business provides an interesting product or service to pilots, flight crews, aircraft, or users of the George T Lewis Airport, you should consider listing it here.  To start the listing process, click on the button below
 
Add a business
 

Other Pages about George T Lewis Airport

Friends of the Cedar Key Airport
 
Update a link
 
Copyright © AirNav, LLC. All rights reserved. Privacy Policy  Contact